Time;durP1;ratioP1;P1;durP2;ratioP2;P2;SDS_P1;SDS_P2;PMS_P1;PMS_P2;Temp;Humidity;BMP_temperature;BMP_pressure;BME280_temperature;BME280_humidity;BME280_pressure;Samples;Min_cycle;Max_cycle;Signal;HPM_P1;HPM_P2
2022/03/27 00:02:09;;;;;;;;;;;19.90;99.90;;;;;;5104874;28;19931;-57
2022/03/27 00:04:36;;;;;;;;;;;19.90;99.90;;;;;;5094158;28;19928;-55
2022/03/27 00:07:03;;;;;;;;;;;19.90;99.90;;;;;;5107422;28;19924;-56
2022/03/27 00:09:30;;;;;;;;;;;19.90;99.80;;;;;;5108767;28;19937;-59
2022/03/27 00:11:58;;;;;;;;;;;19.90;99.80;;;;;;5110250;28;19924;-56
2022/03/27 00:14:25;;;;;;;;;;;19.90;99.80;;;;;;5104701;28;19935;-58
2022/03/27 00:16:52;;;;;;;;;;;19.90;99.70;;;;;;5110124;28;19930;-56
2022/03/27 00:19:20;;;;;;;;;;;19.90;99.70;;;;;;5112265;28;19924;-55
2022/03/27 00:21:47;;;;;;;;;;;19.90;99.70;;;;;;5104218;28;19938;-58
2022/03/27 00:24:14;;;;;;;;;;;19.90;99.70;;;;;;5093792;28;19928;-58
2022/03/27 00:26:41;;;;;;;;;;;19.90;99.70;;;;;;5096241;28;19927;-57
2022/03/27 00:29:09;;;;;;;;;;;19.90;99.70;;;;;;5101900;28;19924;-56
2022/03/27 00:31:37;;;;;;;;;;;19.90;99.70;;;;;;5107174;28;19920;-57
2022/03/27 00:34:05;;;;;;;;;;;19.90;99.70;;;;;;5105559;28;19924;-56
2022/03/27 00:36:32;;;;;;;;;;;19.80;99.60;;;;;;5078833;28;19927;-58
2022/03/27 00:38:59;;;;;;;;;;;19.80;99.70;;;;;;5104380;28;19920;-60
2022/03/27 00:41:27;;;;;;;;;;;19.80;99.70;;;;;;5108496;28;19926;-59
2022/03/27 00:43:54;;;;;;;;;;;19.90;99.70;;;;;;5092450;28;19931;-58
2022/03/27 00:46:21;;;;;;;;;;;19.90;99.60;;;;;;5103387;28;19924;-57
2022/03/27 00:48:48;;;;;;;;;;;19.90;99.60;;;;;;5099799;28;19947;-57
2022/03/27 00:51:15;;;;;;;;;;;19.90;99.60;;;;;;5097481;28;19930;-58
2022/03/27 00:53:42;;;;;;;;;;;19.90;99.60;;;;;;5099618;28;20285;-57
2022/03/27 00:56:10;;;;;;;;;;;19.80;99.50;;;;;;5078139;28;19920;-56
2022/03/27 00:58:37;;;;;;;;;;;19.80;99.50;;;;;;5091848;28;19920;-57
2022/03/27 01:01:15;;;;;;;;;;;19.80;99.50;;;;;;5095674;28;20395;-58
2022/03/27 01:03:43;;;;;;;;;;;19.80;99.50;;;;;;5090656;28;19924;-59
2022/03/27 01:06:29;;;;;;;;;;;19.80;99.50;;;;;;5095351;28;19927;-58
2022/03/27 01:11:42;;;;;;;;;;;19.80;99.50;;;;;;5094884;28;19924;-57
2022/03/27 01:14:09;;;;;;;;;;;19.80;99.50;;;;;;5096919;28;19924;-59
2022/03/27 01:16:39;;;;;;;;;;;19.80;99.40;;;;;;5098532;28;19924;-55
2022/03/27 01:19:08;;;;;;;;;;;19.80;99.40;;;;;;5103513;28;19927;-59
2022/03/27 01:21:37;;;;;;;;;;;19.70;99.40;;;;;;5088942;28;19946;-52
2022/03/27 01:24:05;;;;;;;;;;;19.80;99.50;;;;;;5093880;28;20466;-55
2022/03/27 01:26:33;;;;;;;;;;;19.70;99.40;;;;;;5101794;28;19920;-55
2022/03/27 01:29:00;;;;;;;;;;;19.70;99.40;;;;;;5093191;28;20092;-57
2022/03/27 01:31:27;;;;;;;;;;;19.70;99.40;;;;;;5090831;28;19920;-55
2022/03/27 01:33:55;;;;;;;;;;;19.70;99.50;;;;;;5096604;28;19920;-56
2022/03/27 01:36:27;;;;;;;;;;;19.70;99.50;;;;;;5094109;28;19951;-58
2022/03/27 01:38:55;;;;;;;;;;;19.70;99.50;;;;;;5096989;28;20038;-56
2022/03/27 01:41:23;;;;;;;;;;;19.70;99.60;;;;;;5091418;28;20696;-56
2022/03/27 01:43:50;;;;;;;;;;;19.70;99.60;;;;;;5095757;28;19924;-57
2022/03/27 01:46:18;;;;;;;;;;;19.70;99.70;;;;;;5103246;28;19920;-59
2022/03/27 01:48:45;;;;;;;;;;;19.70;99.70;;;;;;5082327;28;19923;-57
2022/03/27 01:51:13;;;;;;;;;;;19.70;99.60;;;;;;5092172;28;19923;-57
2022/03/27 01:53:40;;;;;;;;;;;19.70;99.70;;;;;;5101929;28;20460;-55
2022/03/27 01:56:08;;;;;;;;;;;19.70;99.70;;;;;;5096414;28;19924;-58
2022/03/27 01:58:39;;;;;;;;;;;19.70;99.60;;;;;;5089335;28;20577;-57
2022/03/27 02:01:07;;;;;;;;;;;19.70;99.60;;;;;;5089351;28;19928;-57
2022/03/27 02:03:34;;;;;;;;;;;19.70;99.60;;;;;;5088789;28;19994;-58
2022/03/27 02:06:03;;;;;;;;;;;19.70;99.70;;;;;;5090179;28;19932;-56
2022/03/27 02:08:32;;;;;;;;;;;19.70;99.70;;;;;;5082654;28;19926;-56
2022/03/27 02:11:00;;;;;;;;;;;19.70;99.70;;;;;;5095888;28;19923;-58
2022/03/27 02:13:27;;;;;;;;;;;19.70;99.70;;;;;;5096294;28;19938;-57
2022/03/27 02:15:57;;;;;;;;;;;19.70;99.70;;;;;;5092664;28;19924;-55
2022/03/27 02:18:28;;;;;;;;;;;19.70;99.60;;;;;;5090802;28;20463;-58
2022/03/27 02:20:56;;;;;;;;;;;19.60;99.60;;;;;;5106387;28;19923;-59
2022/03/27 02:23:23;;;;;;;;;;;19.70;99.60;;;;;;5089117;28;19924;-56
2022/03/27 02:25:51;;;;;;;;;;;19.70;99.50;;;;;;5091283;28;19926;-57
2022/03/27 02:28:18;;;;;;;;;;;19.70;99.50;;;;;;5099309;28;19932;-55
2022/03/27 02:30:46;;;;;;;;;;;19.60;99.50;;;;;;5094121;28;19919;-55
2022/03/27 02:33:13;;;;;;;;;;;19.70;99.50;;;;;;5094121;28;19923;-58
2022/03/27 02:35:40;;;;;;;;;;;19.70;99.60;;;;;;5081102;28;19935;-54
2022/03/27 02:38:08;;;;;;;;;;;19.70;99.60;;;;;;5094077;28;19937;-57
2022/03/27 02:40:36;;;;;;;;;;;19.60;99.60;;;;;;5106472;28;19931;-60
2022/03/27 02:43:04;;;;;;;;;;;19.60;99.50;;;;;;5095873;28;19958;-62
2022/03/27 02:45:32;;;;;;;;;;;19.70;99.50;;;;;;5095663;28;19927;-59
2022/03/27 02:47:59;;;;;;;;;;;19.60;99.40;;;;;;5108805;28;19923;-56
2022/03/27 02:50:27;;;;;;;;;;;19.70;99.40;;;;;;5095291;28;20392;-55
2022/03/27 02:52:54;;;;;;;;;;;19.60;99.40;;;;;;5090653;28;20400;-60
2022/03/27 02:55:22;;;;;;;;;;;19.60;99.40;;;;;;5089345;28;19923;-56
2022/03/27 02:57:50;;;;;;;;;;;19.70;99.40;;;;;;5096915;28;19931;-58
2022/03/27 03:00:17;;;;;;;;;;;19.60;99.40;;;;;;5100117;28;19923;-56
2022/03/27 03:02:44;;;;;;;;;;;19.60;99.40;;;;;;5104401;28;19924;-56
2022/03/27 03:05:12;;;;;;;;;;;19.60;99.40;;;;;;5106511;28;19920;-56
2022/03/27 03:07:42;;;;;;;;;;;19.60;99.40;;;;;;5085727;28;19920;-56
2022/03/27 03:10:10;;;;;;;;;;;19.60;99.40;;;;;;5088587;28;19920;-58
2022/03/27 03:12:39;;;;;;;;;;;19.60;99.40;;;;;;5101867;28;19928;-57
2022/03/27 03:15:06;;;;;;;;;;;19.60;99.40;;;;;;5098713;28;19927;-59
2022/03/27 03:17:34;;;;;;;;;;;19.60;99.40;;;;;;5093572;28;19931;-58
2022/03/27 03:20:02;;;;;;;;;;;19.60;99.40;;;;;;5097149;28;20250;-56
2022/03/27 03:22:30;;;;;;;;;;;19.60;99.40;;;;;;5097990;28;19923;-59
2022/03/27 03:24:58;;;;;;;;;;;19.60;99.30;;;;;;5093108;28;19919;-59
2022/03/27 03:27:25;;;;;;;;;;;19.60;99.40;;;;;;5092218;28;20437;-58
2022/03/27 03:29:52;;;;;;;;;;;19.50;99.30;;;;;;5100251;28;19931;-56
2022/03/27 03:32:22;;;;;;;;;;;19.60;99.30;;;;;;5098735;28;19924;-57
2022/03/27 03:34:49;;;;;;;;;;;19.60;99.40;;;;;;5106152;28;20471;-58
2022/03/27 03:37:17;;;;;;;;;;;19.50;99.30;;;;;;5086171;28;19935;-57
2022/03/27 03:39:45;;;;;;;;;;;19.60;99.60;;;;;;5096316;28;20380;-56
2022/03/27 03:42:13;;;;;;;;;;;19.60;99.00;;;;;;5104903;28;19924;-60
2022/03/27 03:44:41;;;;;;;;;;;19.60;99.00;;;;;;5098230;28;20407;-58
2022/03/27 03:47:09;;;;;;;;;;;19.60;98.90;;;;;;5100149;28;19958;-60
2022/03/27 03:49:37;;;;;;;;;;;19.70;98.90;;;;;;5098451;28;19939;-55
2022/03/27 03:52:06;;;;;;;;;;;19.60;98.90;;;;;;5105819;28;20276;-58
2022/03/27 03:54:34;;;;;;;;;;;19.70;98.90;;;;;;5095291;28;20467;-58
2022/03/27 03:57:02;;;;;;;;;;;19.70;98.80;;;;;;5095483;28;19924;-55
2022/03/27 03:59:31;;;;;;;;;;;19.70;98.70;;;;;;5091727;28;20388;-59
2022/03/27 04:01:59;;;;;;;;;;;19.70;98.70;;;;;;5108296;28;20521;-59
2022/03/27 04:04:27;;;;;;;;;;;19.80;98.60;;;;;;5091731;28;19924;-60
2022/03/27 04:06:54;;;;;;;;;;;19.80;98.50;;;;;;5094098;28;19923;-60
2022/03/27 04:09:21;;;;;;;;;;;19.80;98.50;;;;;;5095685;28;20344;-59
2022/03/27 04:11:48;;;;;;;;;;;19.90;98.50;;;;;;5109075;28;20481;-59
2022/03/27 04:14:15;;;;;;;;;;;19.90;98.70;;;;;;5093751;28;20011;-56
2022/03/27 04:16:42;;;;;;;;;;;19.90;98.40;;;;;;5100883;28;19923;-58
2022/03/27 04:19:11;;;;;;;;;;;19.90;98.40;;;;;;5091039;28;19928;-56
2022/03/27 04:21:39;;;;;;;;;;;20.00;98.50;;;;;;5096402;28;20816;-59
2022/03/27 04:24:07;;;;;;;;;;;20.00;98.40;;;;;;5092601;28;19939;-56
2022/03/27 04:26:34;;;;;;;;;;;20.00;98.40;;;;;;5101115;28;20324;-55
2022/03/27 04:29:04;;;;;;;;;;;20.10;98.30;;;;;;5090642;28;19923;-56
2022/03/27 04:31:31;;;;;;;;;;;20.00;98.30;;;;;;5103028;28;19923;-59
2022/03/27 04:33:59;;;;;;;;;;;20.10;98.40;;;;;;5102403;28;19924;-56
2022/03/27 04:36:26;;;;;;;;;;;20.00;98.30;;;;;;5090335;28;19944;-57
2022/03/27 04:38:53;;;;;;;;;;;20.00;98.30;;;;;;5100357;28;19943;-56
2022/03/27 04:41:20;;;;;;;;;;;20.00;98.40;;;;;;5092178;28;19942;-55
2022/03/27 04:43:48;;;;;;;;;;;20.00;98.40;;;;;;5093946;28;19919;-57
2022/03/27 04:46:16;;;;;;;;;;;19.90;98.30;;;;;;5102682;28;19924;-56
2022/03/27 04:48:43;;;;;;;;;;;19.90;98.40;;;;;;5095822;28;19927;-58
2022/03/27 04:51:11;;;;;;;;;;;19.90;98.30;;;;;;5095802;28;20324;-58
2022/03/27 04:53:39;;;;;;;;;;;19.90;98.40;;;;;;5099366;28;20440;-57
2022/03/27 04:56:07;;;;;;;;;;;19.90;98.40;;;;;;5093929;28;19920;-56
2022/03/27 04:58:34;;;;;;;;;;;19.90;98.50;;;;;;5096172;28;19924;-59
2022/03/27 05:01:01;;;;;;;;;;;19.90;98.50;;;;;;5096402;28;19923;-58
2022/03/27 05:03:29;;;;;;;;;;;19.90;98.60;;;;;;5095225;28;19931;-56
2022/03/27 05:05:56;;;;;;;;;;;19.80;98.50;;;;;;5103618;28;20385;-58
2022/03/27 05:08:23;;;;;;;;;;;19.90;98.60;;;;;;5097479;28;19928;-57
2022/03/27 05:10:51;;;;;;;;;;;19.90;98.60;;;;;;5089310;28;19924;-58
2022/03/27 05:13:18;;;;;;;;;;;19.80;98.60;;;;;;5103885;28;19928;-56
2022/03/27 05:15:46;;;;;;;;;;;19.80;98.60;;;;;;5112171;28;19921;-56
2022/03/27 05:18:13;;;;;;;;;;;19.80;98.60;;;;;;5100995;28;19928;-64
2022/03/27 05:20:41;;;;;;;;;;;19.80;98.60;;;;;;5092214;28;19923;-57
2022/03/27 05:23:08;;;;;;;;;;;19.80;98.60;;;;;;5102410;28;20290;-56
2022/03/27 05:25:40;;;;;;;;;;;19.70;98.60;;;;;;5091678;28;19920;-57
2022/03/27 05:28:09;;;;;;;;;;;19.80;98.70;;;;;;5105244;28;20400;-57
2022/03/27 05:30:37;;;;;;;;;;;19.70;98.70;;;;;;5089407;28;20388;-56
2022/03/27 05:33:04;;;;;;;;;;;19.70;98.60;;;;;;5089296;28;19935;-55
2022/03/27 05:35:32;;;;;;;;;;;19.70;98.60;;;;;;5099019;28;19924;-58
2022/03/27 05:38:04;;;;;;;;;;;19.70;98.60;;;;;;5111586;28;19923;-58
2022/03/27 05:40:31;;;;;;;;;;;19.70;98.60;;;;;;5090757;28;19924;-57
2022/03/27 05:42:58;;;;;;;;;;;19.70;98.70;;;;;;5102709;28;20459;-58
2022/03/27 05:45:25;;;;;;;;;;;19.70;98.80;;;;;;5098247;28;19943;-57
2022/03/27 05:47:53;;;;;;;;;;;19.70;98.70;;;;;;5091051;28;19931;-58
2022/03/27 05:50:22;;;;;;;;;;;19.70;98.60;;;;;;5099436;28;19935;-57
2022/03/27 05:52:50;;;;;;;;;;;19.70;98.70;;;;;;5087800;28;19924;-56
2022/03/27 05:55:18;;;;;;;;;;;19.70;99.30;;;;;;5100535;28;19919;-59
2022/03/27 05:57:45;;;;;;;;;;;19.70;99.90;;;;;;5098521;28;19927;-55
2022/03/27 06:00:13;;;;;;;;;;;19.70;99.90;;;;;;5090867;28;19927;-57
2022/03/27 06:02:43;;;;;;;;;;;19.70;99.90;;;;;;5107070;28;20383;-58
2022/03/27 06:05:11;;;;;;;;;;;19.70;99.90;;;;;;5107535;28;19931;-58
2022/03/27 06:07:42;;;;;;;;;;;19.70;99.90;;;;;;5092509;28;20329;-57
2022/03/27 06:10:10;;;;;;;;;;;19.80;99.90;;;;;;5088518;28;19924;-58
2022/03/27 06:12:37;;;;;;;;;;;19.80;99.90;;;;;;5095502;28;19923;-59
2022/03/27 06:15:04;;;;;;;;;;;19.70;99.90;;;;;;5097640;28;19946;-58
2022/03/27 06:17:37;;;;;;;;;;;19.70;99.90;;;;;;5104456;28;19930;-54
2022/03/27 06:20:04;;;;;;;;;;;19.60;99.90;;;;;;5088005;28;19935;-58
2022/03/27 06:22:31;;;;;;;;;;;19.60;99.90;;;;;;5089587;28;19924;-58
2022/03/27 06:24:59;;;;;;;;;;;19.60;99.90;;;;;;5103315;28;19923;-57
2022/03/27 06:27:26;;;;;;;;;;;19.60;99.90;;;;;;5095709;28;19926;-57
2022/03/27 06:29:53;;;;;;;;;;;19.70;99.90;;;;;;5099932;28;19997;-62
2022/03/27 06:32:21;;;;;;;;;;;19.70;99.90;;;;;;5085727;28;19920;-62
2022/03/27 06:34:48;;;;;;;;;;;19.30;99.00;;;;;;5107138;28;19939;-57
2022/03/27 06:37:15;;;;;;;;;;;19.50;99.90;;;;;;5085698;28;19928;-60
2022/03/27 06:39:42;;;;;;;;;;;19.70;99.90;;;;;;5095184;28;19927;-60
2022/03/27 06:42:10;;;;;;;;;;;19.90;99.90;;;;;;5089432;28;19942;-57
2022/03/27 06:44:37;;;;;;;;;;;20.00;99.90;;;;;;5104778;28;19932;-60
2022/03/27 06:47:07;;;;;;;;;;;20.10;99.90;;;;;;5103556;28;19927;-62
2022/03/27 06:49:34;;;;;;;;;;;20.10;99.90;;;;;;5096484;28;20415;-61
2022/03/27 06:52:01;;;;;;;;;;;20.10;99.90;;;;;;5087783;28;19931;-59
2022/03/27 06:54:29;;;;;;;;;;;20.10;99.90;;;;;;5094247;28;20412;-60
2022/03/27 06:56:56;;;;;;;;;;;20.00;99.90;;;;;;5092070;28;19928;-56
2022/03/27 06:59:24;;;;;;;;;;;20.00;99.90;;;;;;5107217;28;20006;-54
2022/03/27 07:04:37;;;;;;;;;;;19.90;99.90;;;;;;5099637;28;19931;-53
2022/03/27 07:07:04;;;;;;;;;;;19.90;99.90;;;;;;5103234;28;19951;-51
2022/03/27 07:09:31;;;;;;;;;;;19.90;99.90;;;;;;5101565;28;19931;-52
2022/03/27 07:12:05;;;;;;;;;;;19.90;99.90;;;;;;5095212;28;19923;-56
2022/03/27 07:14:32;;;;;;;;;;;19.80;99.90;;;;;;5099148;28;20289;-57
2022/03/27 07:16:59;;;;;;;;;;;19.90;99.90;;;;;;5099587;28;19920;-55
2022/03/27 07:19:26;;;;;;;;;;;19.80;99.90;;;;;;5099207;28;19926;-57
2022/03/27 07:21:53;;;;;;;;;;;19.90;99.90;;;;;;5101641;28;20360;-56
2022/03/27 07:24:21;;;;;;;;;;;19.90;99.90;;;;;;5090297;28;19927;-56
2022/03/27 07:26:48;;;;;;;;;;;19.80;99.90;;;;;;5107730;28;19920;-52
2022/03/27 07:29:15;;;;;;;;;;;19.70;99.90;;;;;;5099111;28;19924;-57
2022/03/27 07:31:42;;;;;;;;;;;19.70;99.90;;;;;;5088969;28;20396;-52
2022/03/27 07:34:10;;;;;;;;;;;19.70;99.90;;;;;;5087837;28;19920;-55
2022/03/27 07:36:37;;;;;;;;;;;19.70;99.90;;;;;;5087959;28;19924;-57
2022/03/27 07:39:05;;;;;;;;;;;19.80;99.90;;;;;;5100005;28;19942;-54
2022/03/27 07:41:32;;;;;;;;;;;19.80;99.90;;;;;;5090742;28;19924;-54
2022/03/27 07:43:59;;;;;;;;;;;19.90;99.90;;;;;;5107617;28;19968;-54
2022/03/27 07:46:27;;;;;;;;;;;19.80;99.90;;;;;;5088437;28;19935;-56
2022/03/27 07:48:55;;;;;;;;;;;19.90;99.90;;;;;;5094812;28;19998;-55
2022/03/27 07:51:22;;;;;;;;;;;19.90;99.90;;;;;;5090339;28;19924;-53
2022/03/27 07:53:49;;;;;;;;;;;19.90;99.90;;;;;;5102950;28;19967;-54
2022/03/27 07:56:16;;;;;;;;;;;19.90;99.90;;;;;;5090133;28;19924;-53
2022/03/27 07:58:45;;;;;;;;;;;19.90;99.90;;;;;;5092391;28;19967;-55
2022/03/27 08:01:15;;;;;;;;;;;19.90;99.90;;;;;;5096472;28;19920;-57
2022/03/27 08:03:43;;;;;;;;;;;19.90;99.90;;;;;;5100474;28;20383;-59
2022/03/27 08:06:10;;;;;;;;;;;19.90;99.90;;;;;;5089131;28;19931;-53
2022/03/27 08:08:38;;;;;;;;;;;19.90;99.90;;;;;;5089950;28;19924;-57
2022/03/27 08:11:06;;;;;;;;;;;19.90;99.90;;;;;;5099639;28;19928;-54
2022/03/27 08:13:34;;;;;;;;;;;19.90;99.90;;;;;;5098982;28;19931;-55
2022/03/27 08:16:01;;;;;;;;;;;19.90;99.90;;;;;;5108151;28;19950;-53
2022/03/27 08:18:28;;;;;;;;;;;19.90;99.90;;;;;;5095413;28;19947;-59
2022/03/27 08:20:56;;;;;;;;;;;19.90;99.90;;;;;;5088657;28;19930;-57
2022/03/27 08:23:23;;;;;;;;;;;19.90;99.90;;;;;;5091008;28;20308;-56
2022/03/27 08:28:36;;;;;;;;;;;19.90;99.90;;;;;;5093542;28;19927;-53
2022/03/27 08:31:03;;;;;;;;;;;19.90;99.90;;;;;;5090609;28;19924;-56
2022/03/27 08:33:30;;;;;;;;;;;19.90;99.90;;;;;;5075249;28;19920;-55
2022/03/27 08:35:58;;;;;;;;;;;19.90;99.90;;;;;;5092209;28;19920;-56
2022/03/27 08:38:25;;;;;;;;;;;19.90;99.90;;;;;;5091487;28;19927;-56
2022/03/27 08:40:53;;;;;;;;;;;20.00;99.90;;;;;;5094264;28;20292;-56
2022/03/27 08:43:20;;;;;;;;;;;19.90;99.90;;;;;;5109637;28;20296;-56
2022/03/27 08:45:48;;;;;;;;;;;20.00;99.90;;;;;;5079273;28;19920;-54
2022/03/27 08:48:15;;;;;;;;;;;20.00;99.90;;;;;;5075480;28;19924;-56
2022/03/27 08:50:50;;;;;;;;;;;19.90;99.90;;;;;;5091963;28;19919;-57
2022/03/27 08:53:22;;;;;;;;;;;20.00;99.90;;;;;;5095425;28;19950;-59
2022/03/27 08:56:00;;;;;;;;;;;20.00;99.90;;;;;;5091260;28;19924;-55
2022/03/27 08:58:31;;;;;;;;;;;20.00;99.90;;;;;;5089078;28;19920;-56
2022/03/27 09:00:58;;;;;;;;;;;20.00;99.90;;;;;;5075446;28;19923;-52
2022/03/27 09:03:26;;;;;;;;;;;20.00;99.90;;;;;;5106218;28;19928;-55
2022/03/27 09:05:54;;;;;;;;;;;20.00;99.90;;;;;;5077448;28;20341;-55
2022/03/27 09:08:29;;;;;;;;;;;20.00;99.90;;;;;;5090396;28;19924;-54
2022/03/27 09:10:56;;;;;;;;;;;20.00;99.90;;;;;;5088684;28;19924;-58
2022/03/27 09:13:24;;;;;;;;;;;20.00;99.90;;;;;;5092978;28;19924;-52
2022/03/27 09:16:01;;;;;;;;;;;20.00;99.90;;;;;;5092997;28;19927;-53
2022/03/27 09:18:44;;;;;;;;;;;20.00;99.90;;;;;;5090245;28;19924;-59
2022/03/27 09:21:16;;;;;;;;;;;20.00;99.90;;;;;;5098669;28;19924;-53
2022/03/27 09:23:43;;;;;;;;;;;20.10;99.90;;;;;;5100201;28;20487;-55
2022/03/27 09:26:16;;;;;;;;;;;20.10;99.90;;;;;;5091304;28;19924;-55
2022/03/27 09:28:45;;;;;;;;;;;20.10;99.90;;;;;;5090199;28;19943;-57
2022/03/27 09:31:13;;;;;;;;;;;20.00;99.90;;;;;;5089538;28;19947;-55
2022/03/27 09:33:48;;;;;;;;;;;20.00;99.90;;;;;;5088664;28;19928;-55
2022/03/27 09:36:20;;;;;;;;;;;20.10;99.90;;;;;;5089796;28;19920;-56
2022/03/27 09:39:02;;;;;;;;;;;20.10;99.90;;;;;;5100557;28;19934;-53
2022/03/27 09:41:46;;;;;;;;;;;20.10;99.90;;;;;;5089449;28;19920;-57
2022/03/27 09:44:16;;;;;;;;;;;20.10;99.90;;;;;;5093896;28;19943;-56
2022/03/27 09:46:54;;;;;;;;;;;20.10;99.90;;;;;;5105247;28;19938;-56
2022/03/27 09:49:41;;;;;;;;;;;20.00;99.90;;;;;;5104597;28;20403;-52
2022/03/27 09:52:08;;;;;;;;;;;20.10;99.90;;;;;;5088727;28;19924;-57
2022/03/27 09:54:46;;;;;;;;;;;20.10;99.90;;;;;;5089791;28;19920;-57
2022/03/27 09:57:17;;;;;;;;;;;20.10;99.90;;;;;;5090344;28;19920;-53
2022/03/27 09:59:45;;;;;;;;;;;20.10;99.90;;;;;;5103911;28;19924;-53
2022/03/27 10:02:17;;;;;;;;;;;20.10;99.90;;;;;;5089393;28;20300;-54
2022/03/27 10:04:51;;;;;;;;;;;20.10;99.90;;;;;;5089886;28;20369;-58
2022/03/27 10:07:18;;;;;;;;;;;20.10;99.90;;;;;;5093905;28;19930;-54
2022/03/27 10:09:46;;;;;;;;;;;20.10;99.90;;;;;;5105369;28;19919;-54
2022/03/27 10:12:14;;;;;;;;;;;20.20;99.90;;;;;;5088664;28;19920;-56
2022/03/27 10:14:47;;;;;;;;;;;20.20;99.90;;;;;;5096679;28;19930;-55
2022/03/27 10:17:15;;;;;;;;;;;20.20;99.90;;;;;;5084363;28;20003;-53
2022/03/27 10:19:54;;;;;;;;;;;20.20;99.90;;;;;;5090760;28;19920;-56
2022/03/27 10:22:23;;;;;;;;;;;20.20;99.90;;;;;;5076201;28;19920;-53
2022/03/27 10:24:54;;;;;;;;;;;20.20;99.90;;;;;;5089028;28;19931;-54
2022/03/27 10:27:24;;;;;;;;;;;20.20;99.90;;;;;;5101484;28;19946;-56
2022/03/27 10:29:52;;;;;;;;;;;20.20;99.90;;;;;;5092792;28;20438;-56
2022/03/27 10:32:20;;;;;;;;;;;20.20;99.90;;;;;;5089083;28;19924;-58
2022/03/27 10:34:59;;;;;;;;;;;20.20;99.90;;;;;;5096082;28;19928;-54
2022/03/27 10:37:32;;;;;;;;;;;20.20;99.90;;;;;;5096120;28;19980;-54
2022/03/27 10:40:09;;;;;;;;;;;20.20;99.90;;;;;;5091160;28;19931;-56
2022/03/27 10:42:39;;;;;;;;;;;20.20;99.90;;;;;;5070379;28;19919;-59
2022/03/27 10:45:09;;;;;;;;;;;20.20;99.90;;;;;;5093923;28;19920;-56
2022/03/27 10:47:37;;;;;;;;;;;20.20;99.90;;;;;;5093210;28;20429;-59
2022/03/27 10:50:04;;;;;;;;;;;20.20;99.90;;;;;;5088746;28;19931;-55
2022/03/27 10:52:57;;;;;;;;;;;20.20;99.90;;;;;;5088098;28;20237;-53
2022/03/27 10:55:38;;;;;;;;;;;20.20;99.90;;;;;;5089189;28;19931;-55
2022/03/27 10:58:23;;;;;;;;;;;20.20;99.90;;;;;;5095791;28;20368;-55
2022/03/27 11:00:51;;;;;;;;;;;20.20;99.90;;;;;;5089546;28;19931;-58
2022/03/27 11:03:44;;;;;;;;;;;20.20;99.90;;;;;;5101860;28;19924;-56
2022/03/27 11:06:28;;;;;;;;;;;20.20;99.90;;;;;;5092025;28;19928;-56
2022/03/27 11:08:57;;;;;;;;;;;20.20;99.90;;;;;;5092209;28;19924;-57
2022/03/27 11:11:43;;;;;;;;;;;20.20;99.90;;;;;;5085299;28;20326;-54
2022/03/27 11:14:20;;;;;;;;;;;20.20;99.90;;;;;;5093076;28;20624;-55
2022/03/27 11:17:03;;;;;;;;;;;20.20;99.90;;;;;;5094117;28;19927;-56
2022/03/27 11:19:46;;;;;;;;;;;20.20;99.90;;;;;;5090799;28;19924;-52
2022/03/27 11:22:32;;;;;;;;;;;20.20;99.90;;;;;;5093298;28;19931;-55
2022/03/27 11:25:18;;;;;;;;;;;20.20;99.90;;;;;;5095359;28;19920;-57
2022/03/27 11:27:55;;;;;;;;;;;20.20;99.90;;;;;;5090185;28;19927;-54
2022/03/27 11:30:23;;;;;;;;;;;20.20;99.90;;;;;;5104566;28;20392;-56
2022/03/27 11:33:09;;;;;;;;;;;20.20;99.90;;;;;;5092952;28;19923;-56
2022/03/27 11:35:36;;;;;;;;;;;20.20;99.90;;;;;;5090099;28;20305;-55
2022/03/27 11:38:38;;;;;;;;;;;20.30;99.90;;;;;;5087855;28;20419;-57
2022/03/27 11:41:22;;;;;;;;;;;20.20;99.90;;;;;;5025005;28;19928;-57
2022/03/27 11:43:52;;;;;;;;;;;20.20;99.90;;;;;;5083678;28;20908;-57
2022/03/27 11:46:22;;;;;;;;;;;20.20;99.90;;;;;;5099323;28;19931;-58
2022/03/27 11:48:57;;;;;;;;;;;20.20;99.90;;;;;;5103505;28;19932;-59
2022/03/27 11:51:24;;;;;;;;;;;20.20;99.90;;;;;;5101650;28;19924;-55
2022/03/27 11:53:52;;;;;;;;;;;20.20;99.90;;;;;;5088908;28;20273;-58
2022/03/27 11:56:20;;;;;;;;;;;20.20;99.90;;;;;;5088896;28;19924;-56
2022/03/27 11:59:03;;;;;;;;;;;20.20;99.90;;;;;;5095893;28;19931;-60
2022/03/27 12:01:31;;;;;;;;;;;20.20;99.90;;;;;;5111629;28;19919;-57
2022/03/27 12:03:59;;;;;;;;;;;20.20;99.90;;;;;;5103519;28;19938;-56
2022/03/27 12:06:27;;;;;;;;;;;20.20;99.90;;;;;;5093060;28;19924;-58
2022/03/27 12:08:55;;;;;;;;;;;20.20;99.90;;;;;;5100291;28;19928;-57
2022/03/27 12:11:23;;;;;;;;;;;20.20;99.90;;;;;;5106215;28;19923;-55
2022/03/27 12:13:51;;;;;;;;;;;20.20;99.90;;;;;;5090895;28;19927;-57
2022/03/27 12:16:22;;;;;;;;;;;20.20;99.90;;;;;;5094873;28;19951;-54
2022/03/27 12:18:50;;;;;;;;;;;20.20;99.90;;;;;;5092879;28;19923;-53
2022/03/27 12:21:22;;;;;;;;;;;20.20;99.90;;;;;;5099574;28;19968;-53
2022/03/27 12:23:56;;;;;;;;;;;20.20;99.90;;;;;;5098847;28;19930;-56
2022/03/27 12:32:07;;;;;;;;;;;20.20;99.90;;;;;;5093061;28;19920;-54
2022/03/27 12:34:41;;;;;;;;;;;20.20;99.90;;;;;;5091114;28;20412;-54
2022/03/27 12:37:16;;;;;;;;;;;20.20;99.90;;;;;;5091459;28;20269;-56
2022/03/27 12:39:46;;;;;;;;;;;20.10;99.90;;;;;;5096009;28;19944;-54
2022/03/27 12:42:35;;;;;;;;;;;20.20;99.90;;;;;;5092306;28;19990;-56
2022/03/27 12:45:07;;;;;;;;;;;20.20;99.90;;;;;;5099596;28;19925;-56
2022/03/27 12:47:37;;;;;;;;;;;20.20;99.90;;;;;;5101337;28;19931;-54
2022/03/27 12:50:05;;;;;;;;;;;20.20;99.80;;;;;;5102135;28;20375;-55
2022/03/27 12:52:46;;;;;;;;;;;20.20;99.90;;;;;;5091116;28;19919;-53
2022/03/27 12:55:14;;;;;;;;;;;20.20;99.80;;;;;;5073453;28;19924;-57
2022/03/27 12:57:47;;;;;;;;;;;20.20;99.80;;;;;;5091138;28;19924;-56
2022/03/27 13:00:14;;;;;;;;;;;20.20;99.70;;;;;;5107208;28;20403;-55
2022/03/27 13:02:42;;;;;;;;;;;20.20;99.70;;;;;;5090472;28;19920;-56
2022/03/27 13:05:09;;;;;;;;;;;20.20;99.70;;;;;;5091099;28;20408;-52
2022/03/27 13:07:56;;;;;;;;;;;20.20;99.70;;;;;;5090570;28;19920;-57
2022/03/27 13:10:25;;;;;;;;;;;20.20;99.70;;;;;;5080124;28;19927;-56
2022/03/27 13:13:05;;;;;;;;;;;20.20;99.60;;;;;;5090384;28;20602;-56
2022/03/27 13:15:38;;;;;;;;;;;20.20;99.60;;;;;;5098449;28;20023;-54
2022/03/27 13:18:09;;;;;;;;;;;20.20;99.60;;;;;;5096358;28;19920;-56
2022/03/27 13:20:36;;;;;;;;;;;20.30;99.60;;;;;;5106085;28;19920;-55
2022/03/27 13:23:06;;;;;;;;;;;20.30;99.50;;;;;;5091107;28;19938;-57
2022/03/27 13:25:34;;;;;;;;;;;20.30;99.50;;;;;;5090751;28;19920;-55
2022/03/27 13:28:02;;;;;;;;;;;20.30;99.50;;;;;;5096229;28;20442;-50
2022/03/27 13:30:29;;;;;;;;;;;20.30;99.40;;;;;;5101291;28;19920;-57
2022/03/27 13:32:57;;;;;;;;;;;20.40;99.40;;;;;;5091653;28;19924;-55
2022/03/27 13:35:25;;;;;;;;;;;20.40;99.40;;;;;;5086396;28;19920;-53
2022/03/27 13:37:53;;;;;;;;;;;20.40;99.30;;;;;;5095079;28;20251;-55
2022/03/27 13:40:21;;;;;;;;;;;20.40;99.30;;;;;;5106559;28;20030;-57
2022/03/27 13:42:58;;;;;;;;;;;20.50;99.30;;;;;;5097474;28;19924;-58
2022/03/27 13:45:29;;;;;;;;;;;20.50;99.30;;;;;;5118144;28;19938;-58
2022/03/27 13:47:56;;;;;;;;;;;20.50;99.20;;;;;;5090154;28;19928;-54
2022/03/27 13:50:24;;;;;;;;;;;20.60;99.20;;;;;;5090224;28;19926;-57
2022/03/27 13:52:51;;;;;;;;;;;20.60;99.20;;;;;;5093848;28;20300;-55
2022/03/27 13:55:19;;;;;;;;;;;20.60;99.20;;;;;;5087175;28;19928;-58
2022/03/27 13:57:46;;;;;;;;;;;20.60;99.20;;;;;;5087630;28;20287;-56
2022/03/27 14:00:13;;;;;;;;;;;20.70;99.20;;;;;;5100718;28;19927;-54
2022/03/27 14:02:40;;;;;;;;;;;20.70;99.20;;;;;;5089204;28;19937;-53
2022/03/27 14:05:08;;;;;;;;;;;20.70;99.20;;;;;;5095914;28;19924;-57
2022/03/27 14:07:35;;;;;;;;;;;20.70;99.20;;;;;;5099409;28;19919;-55
2022/03/27 14:10:03;;;;;;;;;;;20.80;99.10;;;;;;5089994;28;20539;-57
2022/03/27 14:12:30;;;;;;;;;;;20.80;99.10;;;;;;5089208;28;19924;-55
2022/03/27 14:14:57;;;;;;;;;;;20.80;99.10;;;;;;5098460;28;20313;-54
2022/03/27 14:17:24;;;;;;;;;;;20.80;99.10;;;;;;5089017;28;19944;-58
2022/03/27 14:19:51;;;;;;;;;;;20.90;99.00;;;;;;5091446;28;20329;-56
2022/03/27 14:22:19;;;;;;;;;;;20.90;99.00;;;;;;5098553;28;20304;-55
2022/03/27 14:24:49;;;;;;;;;;;20.90;99.00;;;;;;5111807;28;19919;-56
2022/03/27 14:27:16;;;;;;;;;;;20.90;98.90;;;;;;5091874;28;19931;-57
2022/03/27 14:29:44;;;;;;;;;;;20.90;98.90;;;;;;5088938;28;19924;-56
2022/03/27 14:32:11;;;;;;;;;;;21.00;98.90;;;;;;5077546;28;20389;-57
2022/03/27 14:34:42;;;;;;;;;;;20.90;98.90;;;;;;5109555;28;19927;-54
2022/03/27 14:37:10;;;;;;;;;;;20.90;98.90;;;;;;5101860;28;19982;-57
2022/03/27 14:39:37;;;;;;;;;;;20.90;98.90;;;;;;5089515;28;20006;-57
2022/03/27 14:42:05;;;;;;;;;;;20.80;99.00;;;;;;5088686;28;19954;-56
2022/03/27 14:44:32;;;;;;;;;;;20.80;99.00;;;;;;5096017;28;19924;-57